Time;durP1;ratioP1;P1;durP2;ratioP2;P2;SDS_P1;SDS_P2;PMS_P1;PMS_P2;Temp;Humidity;BMP_temperature;BMP_pressure;BME280_temperature;BME280_humidity;BME280_pressure;Samples;Min_cycle;Max_cycle;Signal;HPM_P1;HPM_P2
2022/09/27 00:01:48;;;;;;;16.85;2.80;;;;;;;8.54;100.00;99345.59;5021806;28;20454;-87
2022/09/27 00:04:15;;;;;;;6.45;2.10;;;;;;;8.93;100.00;99310.50;5040747;28;20045;-87
2022/09/27 00:06:41;;;;;;;11.13;2.53;;;;;;;8.88;100.00;99339.47;5024086;28;20052;-87
2022/09/27 00:09:09;;;;;;;9.23;2.42;;;;;;;9.33;100.00;99365.81;5027802;28;20115;-88
2022/09/27 00:11:38;;;;;;;9.70;2.05;;;;;;;9.50;100.00;99360.50;5029092;28;20772;-87
2022/09/27 00:14:07;;;;;;;10.27;2.08;;;;;;;9.52;100.00;99354.34;5032462;28;20096;-87
2022/09/27 00:16:36;;;;;;;15.75;2.20;;;;;;;9.38;100.00;99352.50;5045181;28;20054;-87
2022/09/27 00:19:06;;;;;;;7.55;1.88;;;;;;;9.34;100.00;99330.91;5021429;28;20065;-87
2022/09/27 00:21:34;;;;;;;10.65;2.22;;;;;;;9.36;100.00;99336.06;5024880;28;20058;-86
2022/09/27 00:24:01;;;;;;;11.55;2.80;;;;;;;9.29;100.00;99307.66;5022215;28;20494;-87
2022/09/27 00:26:28;;;;;;;13.35;2.80;;;;;;;9.22;100.00;99295.88;5024760;28;20050;-87
2022/09/27 00:28:54;;;;;;;11.30;2.63;;;;;;;9.30;100.00;99291.06;5015587;28;20456;-87
2022/09/27 00:31:28;;;;;;;10.90;2.55;;;;;;;9.48;100.00;99320.53;5032094;28;20042;-87
2022/09/27 00:33:57;;;;;;;10.95;2.10;;;;;;;9.60;100.00;99313.81;5034244;28;20049;-87
2022/09/27 00:36:25;;;;;;;10.57;2.33;;;;;;;9.72;100.00;99314.03;5044913;28;20095;-87
2022/09/27 00:38:52;;;;;;;10.02;2.13;;;;;;;9.22;100.00;99289.81;5028212;28;20049;-87
2022/09/27 00:41:22;;;;;;;11.77;1.98;;;;;;;9.40;100.00;99298.38;5032760;28;20053;-87
2022/09/27 00:44:28;;;;;;;5.60;1.50;;;;;;;9.39;100.00;99310.63;5038564;28;20049;-88
2022/09/27 00:47:10;;;;;;;12.07;3.55;;;;;;;9.36;100.00;99317.78;5006701;28;20046;-87
2022/09/27 00:49:43;;;;;;;13.07;3.13;;;;;;;9.32;100.00;99309.28;5040352;28;20049;-87
2022/09/27 00:52:42;;;;;;;6.43;1.90;;;;;;;8.99;100.00;99302.34;5032305;28;20057;-88
2022/09/27 00:55:19;;;;;;;6.97;1.50;;;;;;;9.06;100.00;99290.63;5014004;28;20053;-88
2022/09/27 00:57:48;;;;;;;9.02;2.05;;;;;;;9.01;100.00;99289.22;5023812;28;20045;-88
2022/09/27 01:00:16;;;;;;;7.43;2.35;;;;;;;9.00;100.00;99290.16;5030499;28;20046;-88
2022/09/27 01:02:52;;;;;;;6.78;1.60;;;;;;;9.19;100.00;99292.56;5032653;28;20054;-88
2022/09/27 01:05:22;;;;;;;12.50;2.38;;;;;;;9.48;100.00;99272.69;5032918;28;20053;-88
2022/09/27 01:07:49;;;;;;;12.27;1.77;;;;;;;9.62;100.00;99279.75;5022066;28;20049;-88
2022/09/27 01:10:18;;;;;;;9.52;2.15;;;;;;;9.62;100.00;99288.44;5024508;28;20046;-87
2022/09/27 01:13:06;;;;;;;6.55;1.83;;;;;;;9.59;100.00;99285.16;5031647;28;20046;-88
2022/09/27 01:15:35;;;;;;;9.98;1.67;;;;;;;9.70;100.00;99290.59;5018039;28;20041;-87
2022/09/27 01:18:37;;;;;;;6.93;1.88;;;;;;;9.73;100.00;99273.91;5032662;28;20053;-87
2022/09/27 01:21:23;;;;;;;11.20;1.92;;;;;;;9.74;100.00;99283.41;5031471;28;20057;-87
2022/09/27 01:24:30;;;;;;;7.15;2.25;;;;;;;9.52;100.00;99273.34;5026726;28;20041;-87
2022/09/27 01:27:21;;;;;;;7.50;1.85;;;;;;;9.50;100.00;99270.81;4991083;28;20046;-87
2022/09/27 01:30:13;;;;;;;12.50;2.03;;;;;;;9.62;100.00;99272.75;5036735;28;20056;-87
2022/09/27 01:32:55;;;;;;;9.73;2.03;;;;;;;9.41;100.00;99248.66;5015246;28;20053;-87
2022/09/27 01:35:51;;;;;;;7.30;1.95;;;;;;;9.60;100.00;99269.38;5030185;28;20095;-88
2022/09/27 01:38:30;;;;;;;9.07;1.60;;;;;;;9.59;100.00;99267.69;5014837;28;20053;-86
2022/09/27 01:41:18;;;;;;;9.95;2.00;;;;;;;9.21;100.00;99254.19;5036523;28;20057;-87
2022/09/27 01:44:13;;;;;;;9.52;2.45;;;;;;;9.17;100.00;99260.50;5028484;28;20077;-87
2022/09/27 01:46:54;;;;;;;16.35;2.53;;;;;;;9.27;100.00;99251.22;5034625;28;20050;-87
2022/09/27 01:49:31;;;;;;;9.98;2.15;;;;;;;9.39;100.00;99249.69;5025150;28;20048;-87
2022/09/27 01:52:04;;;;;;;9.88;2.17;;;;;;;9.57;100.00;99239.97;5032368;28;20057;-87
2022/09/27 01:54:41;;;;;;;;;;;;;;;9.43;100.00;99243.38;5030469;28;20052;-87
2022/09/27 01:57:10;;;;;;;7.25;1.52;;;;;;;9.35;100.00;99242.94;5018427;28;19974;-87
2022/09/27 01:59:46;;;;;;;8.70;1.83;;;;;;;9.23;100.00;99231.44;5036043;28;20099;-87
2022/09/27 02:02:16;;;;;;;12.05;2.00;;;;;;;9.25;100.00;99208.69;5023939;28;20041;-87
2022/09/27 02:04:46;;;;;;;8.93;2.05;;;;;;;9.54;100.00;99227.91;5024158;28;20038;-87
2022/09/27 02:07:22;;;;;;;9.48;1.55;;;;;;;9.21;100.00;99202.78;5040256;28;20264;-86
2022/09/27 02:09:54;;;;;;;11.82;2.13;;;;;;;9.62;100.00;99219.66;5020694;28;20054;-84
2022/09/27 02:12:25;;;;;;;8.95;2.10;;;;;;;9.35;100.00;99207.25;5019308;28;20484;-83
2022/09/27 02:15:00;;;;;;;7.63;2.13;;;;;;;9.34;100.00;99221.22;5026352;28;20088;-86
2022/09/27 02:17:41;;;;;;;10.25;2.13;;;;;;;9.34;100.00;99199.50;5020694;28;20057;-86
2022/09/27 02:20:27;;;;;;;11.75;2.25;;;;;;;9.32;100.00;99221.28;5030092;28;20061;-85
2022/09/27 02:23:09;;;;;;;11.02;2.95;;;;;;;9.44;100.00;99209.31;5047431;28;20056;-86
2022/09/27 02:25:36;;;;;;;7.93;1.75;;;;;;;9.42;100.00;99207.72;5021424;28;20068;-87
2022/09/27 02:28:05;;;;;;;12.32;3.17;;;;;;;9.62;100.00;99196.97;5028641;28;20045;-86
2022/09/27 02:30:32;;;;;;;6.18;1.83;;;;;;;9.71;100.00;99189.53;5028804;28;20057;-86
2022/09/27 02:33:01;;;;;;;8.95;1.85;;;;;;;8.91;100.00;99189.69;5031807;28;20061;-87
2022/09/27 02:35:33;;;;;;;9.32;2.20;;;;;;;8.98;100.00;99184.94;5034714;28;20068;-86
2022/09/27 02:38:02;;;;;;;11.77;2.05;;;;;;;8.85;100.00;99197.84;5054155;28;20056;-86
2022/09/27 02:40:32;;;;;;;10.68;2.00;;;;;;;8.89;100.00;99171.50;5039409;28;20045;-86
2022/09/27 02:43:01;;;;;;;7.90;1.60;;;;;;;8.66;100.00;99162.31;5031112;28;20084;-86
2022/09/27 02:45:37;;;;;;;6.75;1.50;;;;;;;8.91;100.00;99177.47;5022433;28;20092;-84
2022/09/27 02:48:28;;;;;;;7.13;2.10;;;;;;;8.72;100.00;99143.72;5020032;28;20076;-85
2022/09/27 02:50:58;;;;;;;5.88;1.63;;;;;;;9.08;100.00;99192.19;5055415;28;20049;-86
2022/09/27 02:53:27;;;;;;;7.80;2.13;;;;;;;8.97;100.00;99191.09;5039333;28;20053;-85
2022/09/27 02:56:25;;;;;;;6.47;1.50;;;;;;;8.85;100.00;99133.44;5028558;28;20046;-84
2022/09/27 02:59:00;;;;;;;10.98;2.00;;;;;;;9.19;100.00;99182.91;5038363;28;20152;-84
2022/09/27 03:01:38;;;;;;;7.68;1.45;;;;;;;9.01;100.00;99154.31;5033968;28;20061;-84
2022/09/27 03:04:37;;;;;;;8.68;1.63;;;;;;;9.21;100.00;99158.41;5044921;28;20049;-85
2022/09/27 03:07:05;;;;;;;7.57;1.83;;;;;;;8.99;100.00;99114.38;5031956;28;20108;-87
2022/09/27 03:09:48;;;;;;;12.50;2.17;;;;;;;8.52;100.00;99091.81;5026265;28;20520;-86
2022/09/27 03:12:21;;;;;;;8.63;1.90;;;;;;;8.65;100.00;99131.94;5040816;28;20045;-87
2022/09/27 03:14:48;;;;;;;11.85;2.28;;;;;;;8.60;100.00;99117.47;5012481;28;20096;-87
2022/09/27 03:17:15;;;;;;;8.50;3.03;;;;;;;8.59;100.00;99124.47;5017301;28;20045;-86
2022/09/27 03:19:42;;;;;;;11.25;1.80;;;;;;;8.70;100.00;99131.69;5027437;28;20495;-86
2022/09/27 03:22:09;;;;;;;10.98;2.30;;;;;;;8.76;100.00;99130.50;5030346;28;20613;-84
2022/09/27 03:24:36;;;;;;;7.35;1.48;;;;;;;8.79;100.00;99130.34;5022265;28;20107;-86
2022/09/27 03:27:03;;;;;;;13.63;2.10;;;;;;;8.80;100.00;99116.34;5027514;28;20050;-86
2022/09/27 03:29:29;;;;;;;11.15;1.83;;;;;;;8.53;100.00;99098.69;5048040;28;20535;-86
2022/09/27 03:31:56;;;;;;;12.85;2.20;;;;;;;8.61;100.00;99116.56;5029107;28;20057;-86
2022/09/27 03:34:23;;;;;;;12.88;1.75;;;;;;;8.69;100.00;99109.13;5049935;28;20447;-86
2022/09/27 03:36:50;;;;;;;10.07;2.22;;;;;;;8.60;100.00;99117.47;5030795;28;20133;-86
2022/09/27 03:39:17;;;;;;;8.38;1.98;;;;;;;8.43;100.00;99103.59;5029576;28;20553;-86
2022/09/27 03:41:44;;;;;;;10.98;2.47;;;;;;;8.62;100.00;99099.94;5023095;28;20062;-87
2022/09/27 03:44:10;;;;;;;13.55;3.33;;;;;;;8.32;100.00;99106.75;5031933;28;20096;-88
2022/09/27 03:46:37;;;;;;;17.00;3.35;;;;;;;8.44;100.00;99100.03;5037642;28;20480;-87
2022/09/27 03:49:04;;;;;;;9.60;2.58;;;;;;;8.50;100.00;99117.97;5031377;28;20111;-87
2022/09/27 03:51:30;;;;;;;9.57;1.90;;;;;;;8.62;100.00;99105.16;5030933;28;20116;-88
2022/09/27 03:53:57;;;;;;;7.28;1.50;;;;;;;8.69;100.00;99111.72;5033770;28;20099;-87
2022/09/27 03:56:24;;;;;;;9.15;2.00;;;;;;;8.60;100.00;99096.59;5031081;28;20091;-87
2022/09/27 03:58:50;;;;;;;7.22;1.95;;;;;;;8.68;100.00;99110.91;5049856;28;20053;-86
2022/09/27 04:01:17;;;;;;;11.20;1.90;;;;;;;8.51;100.00;99095.34;5034321;28;20096;-87
2022/09/27 04:03:44;;;;;;;6.25;1.83;;;;;;;8.67;100.00;99098.75;5033825;28;20132;-87
2022/09/27 04:06:12;;;;;;;13.18;3.08;;;;;;;8.90;100.00;99115.72;5027606;28;20072;-87
2022/09/27 04:08:39;;;;;;;8.55;1.80;;;;;;;8.69;100.00;99098.69;5029628;28;20050;-87
2022/09/27 04:11:06;;;;;;;14.38;2.55;;;;;;;8.72;100.00;99107.19;5031877;28;20061;-87
2022/09/27 04:13:33;;;;;;;6.90;1.50;;;;;;;8.88;100.00;99111.53;5046311;28;20045;-86
2022/09/27 04:16:01;;;;;;;8.75;2.25;;;;;;;8.64;100.00;99105.91;5026376;28;20046;-87
2022/09/27 04:18:28;;;;;;;6.95;2.30;;;;;;;8.55;100.00;99105.53;5035501;28;20439;-87
2022/09/27 04:20:55;;;;;;;10.52;1.38;;;;;;;8.27;100.00;99098.34;5033474;28;20380;-85
2022/09/27 04:23:22;;;;;;;9.88;1.67;;;;;;;8.20;100.00;99096.13;5033608;28;20483;-85
2022/09/27 04:25:55;;;;;;;;;;;;;;;8.63;100.00;99110.31;5019243;28;20056;-85
2022/09/27 04:28:22;;;;;;;7.60;1.42;;;;;;;8.53;100.00;99098.69;5031467;28;20283;-85
2022/09/27 04:30:49;;;;;;;6.22;1.67;;;;;;;8.44;100.00;99109.63;5031960;28;20046;-85
2022/09/27 04:33:16;;;;;;;6.53;1.30;;;;;;;8.42;100.00;99104.50;5028531;28;20100;-85
2022/09/27 04:38:28;;;;;;;7.05;2.22;;;;;;;8.44;100.00;99113.06;5033318;28;20099;-87
2022/09/27 04:40:55;;;;;;;8.60;1.30;;;;;;;8.31;100.00;99112.03;5029740;28;20049;-87
2022/09/27 04:43:22;;;;;;;7.53;1.40;;;;;;;8.33;100.00;99100.59;5032322;28;20053;-86
2022/09/27 04:45:49;;;;;;;6.00;1.20;;;;;;;8.30;100.00;99092.94;5049310;28;20142;-87
2022/09/27 04:48:15;;;;;;;5.70;1.30;;;;;;;8.00;100.00;99064.16;5033811;28;20053;-87
2022/09/27 04:50:42;;;;;;;4.25;1.20;;;;;;;7.98;100.00;99092.06;5032417;28;20092;-85
2022/09/27 04:53:13;;;;;;;4.95;1.50;;;;;;;8.10;100.00;99087.97;5032607;28;20096;-85
2022/09/27 04:55:45;;;;;;;7.55;1.60;;;;;;;8.01;100.00;99104.94;5031298;28;20519;-85
2022/09/27 04:58:12;;;;;;;5.53;1.38;;;;;;;7.84;100.00;99089.34;5027497;28;20123;-85
2022/09/27 05:00:40;;;;;;;5.88;1.33;;;;;;;7.98;100.00;99086.84;5038255;28;20053;-88
2022/09/27 05:03:06;;;;;;;5.82;1.38;;;;;;;7.71;100.00;99039.66;5014426;28;20104;-87
2022/09/27 05:05:33;;;;;;;5.35;1.30;;;;;;;7.63;100.00;99021.81;5037472;28;20050;-85
2022/09/27 05:08:00;;;;;;;4.35;1.13;;;;;;;7.88;100.00;99042.22;5030113;28;20049;-86
2022/09/27 05:10:27;;;;;;;6.35;1.38;;;;;;;7.85;100.00;99049.34;5029129;28;20053;-86
2022/09/27 05:12:53;;;;;;;3.03;1.20;;;;;;;7.94;100.00;99061.88;5031375;28;20107;-86
2022/09/27 05:15:20;;;;;;;4.35;1.30;;;;;;;7.73;100.00;99037.81;5030960;28;20045;-87
2022/09/27 05:17:50;;;;;;;8.52;2.42;;;;;;;7.59;100.00;99041.13;5028647;28;20447;-86
2022/09/27 05:20:18;;;;;;;4.72;1.48;;;;;;;8.03;100.00;99044.91;5032505;28;20045;-86
2022/09/27 05:22:45;;;;;;;5.68;1.30;;;;;;;7.96;100.00;99053.03;5027665;28;20458;-86
2022/09/27 05:25:12;;;;;;;5.25;1.25;;;;;;;7.82;100.00;99041.69;5029363;28;20053;-86
2022/09/27 05:27:39;;;;;;;6.70;1.30;;;;;;;8.17;100.00;99058.03;5029290;28;20045;-86
2022/09/27 05:30:07;;;;;;;4.70;1.17;;;;;;;7.85;100.00;99044.97;5026041;28;20053;-88
2022/09/27 05:32:34;;;;;;;5.32;1.25;;;;;;;7.96;100.00;99042.63;5030294;28;20057;-87
2022/09/27 05:35:01;;;;;;;3.97;1.17;;;;;;;7.77;100.00;99006.31;5022937;28;20041;-86
2022/09/27 05:37:31;;;;;;;4.80;1.25;;;;;;;7.80;100.00;99021.75;5030196;28;20112;-86
2022/09/27 05:39:58;;;;;;;2.75;1.10;;;;;;;7.69;100.00;98979.81;5024786;28;20472;-87
2022/09/27 05:42:37;;;;;;;4.10;1.20;;;;;;;7.93;100.00;99013.28;5030290;28;20073;-87
2022/09/27 05:45:05;;;;;;;5.10;1.27;;;;;;;7.97;100.00;99023.47;5026597;28;20483;-85
2022/09/27 05:47:32;;;;;;;3.92;1.13;;;;;;;7.80;100.00;99015.72;5031063;28;20418;-85
2022/09/27 05:49:59;;;;;;;4.07;1.20;;;;;;;7.82;100.00;99008.66;5047519;28;20095;-85
2022/09/27 05:52:26;;;;;;;6.85;1.10;;;;;;;7.83;100.00;99005.13;5029760;28;20053;-87
2022/09/27 05:54:52;;;;;;;6.55;1.50;;;;;;;7.66;100.00;98973.94;5031670;28;20499;-87
2022/09/27 05:57:19;;;;;;;2.92;1.20;;;;;;;7.96;100.00;99005.31;5028763;28;20054;-86
2022/09/27 05:59:46;;;;;;;3.10;1.13;;;;;;;7.72;100.00;98982.28;5028199;28;20053;-87
2022/09/27 06:02:13;;;;;;;4.10;1.20;;;;;;;8.07;100.00;99012.53;5030610;28;20436;-87
2022/09/27 06:04:40;;;;;;;5.50;1.40;;;;;;;8.05;100.00;99019.59;5044960;28;20041;-88
2022/09/27 06:07:06;;;;;;;5.07;1.40;;;;;;;8.11;100.00;99021.84;5030713;28;20502;-85
2022/09/27 06:09:33;;;;;;;3.13;1.20;;;;;;;7.67;100.00;99007.72;5035012;28;20046;-85
2022/09/27 06:12:00;;;;;;;5.95;1.58;;;;;;;7.91;100.00;99017.75;5030487;28;20068;-87
2022/09/27 06:14:26;;;;;;;8.25;2.17;;;;;;;7.85;100.00;99013.72;5036883;28;20041;-87
2022/09/27 06:16:53;;;;;;;3.15;1.27;;;;;;;7.86;100.00;99010.19;5028604;28;20073;-87
2022/09/27 06:19:20;;;;;;;3.25;1.23;;;;;;;7.70;100.00;99010.16;5029432;28;20128;-87
2022/09/27 06:21:50;;;;;;;7.57;1.58;;;;;;;7.94;100.00;99008.00;5029918;28;20052;-87
2022/09/27 06:24:17;;;;;;;5.15;1.42;;;;;;;7.97;100.00;98986.16;5028036;28;20127;-87
2022/09/27 06:26:44;;;;;;;4.68;1.30;;;;;;;8.06;100.00;99011.69;5030747;28;20111;-87
2022/09/27 06:29:11;;;;;;;7.40;1.40;;;;;;;8.11;100.00;99001.00;5029758;28;20053;-88
2022/09/27 06:31:37;;;;;;;7.55;1.25;;;;;;;8.12;100.00;99000.09;5016726;28;20730;-84
2022/09/27 06:34:04;;;;;;;5.70;1.30;;;;;;;8.20;100.00;98982.28;5024398;28;20056;-83
2022/09/27 06:36:32;;;;;;;4.85;1.17;;;;;;;8.38;100.00;99005.63;5025597;28;20057;-84
2022/09/27 06:39:00;;;;;;;6.88;1.70;;;;;;;8.26;100.00;98991.50;5025736;28;20453;-83
2022/09/27 06:41:27;;;;;;;10.60;1.73;;;;;;;8.23;100.00;99004.72;5029160;28;20057;-86
2022/09/27 06:43:54;;;;;;;4.20;1.60;;;;;;;8.21;100.00;98963.06;5028450;28;20115;-85
2022/09/27 06:46:21;;;;;;;8.07;1.70;;;;;;;8.43;100.00;98973.19;5032167;28;20046;-84
2022/09/27 06:48:47;;;;;;;6.13;1.30;;;;;;;8.64;100.00;98976.34;5039613;28;20495;-86
2022/09/27 06:51:14;;;;;;;6.13;1.83;;;;;;;8.64;100.00;98965.91;5054788;28;20423;-85
2022/09/27 06:53:41;;;;;;;4.68;1.38;;;;;;;8.35;100.00;98959.69;5045287;28;20046;-86
2022/09/27 06:56:08;;;;;;;5.95;1.45;;;;;;;8.46;100.00;98944.28;5047322;28;20597;-85
2022/09/27 07:01:21;;;;;;;8.30;1.50;;;;;;;8.84;100.00;98959.50;5030611;28;20050;-85
2022/09/27 07:03:50;;;;;;;8.98;1.45;;;;;;;8.66;100.00;98943.16;5043199;28;20060;-85
2022/09/27 07:06:21;;;;;;;9.88;1.63;;;;;;;8.91;100.00;98975.66;5031503;28;20049;-84
2022/09/27 07:08:52;;;;;;;7.70;1.83;;;;;;;9.04;100.00;98984.41;5024209;28;20053;-85
2022/09/27 07:11:22;;;;;;;12.40;1.60;;;;;;;9.07;100.00;98981.63;5029002;28;20049;-84
2022/09/27 07:13:49;;;;;;;7.13;1.65;;;;;;;9.05;100.00;98975.69;5039657;28;20415;-88
2022/09/27 07:16:16;;;;;;;8.88;1.70;;;;;;;9.15;100.00;98982.94;5023613;28;20053;-88
2022/09/27 07:18:43;;;;;;;5.20;1.50;;;;;;;8.87;100.00;98963.69;5031305;28;20057;-88
2022/09/27 07:21:11;;;;;;;6.22;2.00;;;;;;;8.72;100.00;98934.97;5033212;28;20053;-87
2022/09/27 07:23:38;;;;;;;9.98;2.03;;;;;;;8.48;100.00;98958.13;5024219;28;20052;-87
2022/09/27 07:26:06;;;;;;;6.30;1.30;;;;;;;8.63;100.00;98950.31;5047894;28;20458;-87
2022/09/27 07:28:33;;;;;;;4.72;1.63;;;;;;;8.70;100.00;98934.22;5025674;28;20050;-87
2022/09/27 07:31:02;;;;;;;6.97;1.38;;;;;;;9.12;100.00;98973.53;5024613;28;20071;-87
2022/09/27 07:33:30;;;;;;;4.15;1.25;;;;;;;9.10;100.00;99004.97;5022573;28;20385;-88
2022/09/27 07:35:56;;;;;;;5.72;1.10;;;;;;;9.01;100.00;98944.59;5029870;28;20046;-87
2022/09/27 07:38:23;;;;;;;4.68;1.13;;;;;;;9.26;100.00;98972.69;5040820;28;20045;-88
2022/09/27 07:40:50;;;;;;;6.85;1.33;;;;;;;9.12;100.00;98990.03;5033388;28;20053;-85
2022/09/27 07:43:18;;;;;;;7.30;1.40;;;;;;;8.85;100.00;98939.47;5030180;28;20080;-87
2022/09/27 07:45:45;;;;;;;8.98;1.25;;;;;;;9.07;100.00;98978.19;5021013;28;20049;-87
2022/09/27 07:48:14;;;;;;;5.30;1.30;;;;;;;9.24;100.00;99003.28;5043353;28;20057;-87
2022/09/27 07:50:41;;;;;;;5.80;1.10;;;;;;;8.94;100.00;98918.03;5028913;28;20056;-86
2022/09/27 07:53:11;;;;;;;5.35;1.10;;;;;;;8.82;100.00;98942.25;5032797;28;20057;-86
2022/09/27 07:55:39;;;;;;;4.97;1.10;;;;;;;9.17;100.00;98960.19;5022370;28;20041;-86
2022/09/27 07:58:09;;;;;;;7.35;1.20;;;;;;;9.44;100.00;98992.50;5017187;28;20073;-86
2022/09/27 08:00:37;;;;;;;5.38;1.08;;;;;;;8.88;100.00;98939.28;5034849;28;20054;-86
2022/09/27 08:03:05;;;;;;;5.50;1.02;;;;;;;9.08;100.00;98923.28;5023591;28;20053;-87
2022/09/27 08:05:33;;;;;;;2.53;0.90;;;;;;;9.63;100.00;98955.63;5022307;28;20399;-87
2022/09/27 08:08:01;;;;;;;3.88;1.10;;;;;;;9.02;100.00;98941.09;5034330;28;20061;-86
2022/09/27 08:10:30;;;;;;;4.10;0.98;;;;;;;9.21;100.00;98928.59;5025237;28;20119;-86
2022/09/27 08:12:58;;;;;;;3.22;1.00;;;;;;;9.52;100.00;98971.13;5043772;28;20045;-87
2022/09/27 08:15:27;;;;;;;2.75;1.00;;;;;;;9.60;100.00;98979.34;5050447;28;20053;-87
2022/09/27 08:17:54;;;;;;;5.68;1.20;;;;;;;9.47;100.00;98944.44;5040333;28;20049;-89
2022/09/27 08:20:35;;;;;;;3.00;0.90;;;;;;;9.13;100.00;98928.22;5053768;28;20042;-94
2022/09/27 08:23:15;;;;;;;4.25;1.20;;;;;;;9.19;100.00;98974.00;5030841;28;20478;-89
2022/09/27 08:25:58;;;;;;;5.78;1.20;;;;;;;9.23;100.00;99005.06;5029948;28;20048;-91
2022/09/27 08:28:38;;;;;;;3.90;0.95;;;;;;;9.27;100.00;98949.09;5030566;28;20054;-91
2022/09/27 08:31:05;;;;;;;1.58;0.80;;;;;;;9.46;100.00;98959.28;5047642;28;20057;-91
2022/09/27 08:33:33;;;;;;;2.45;0.88;;;;;;;9.44;100.00;98942.84;5052073;28;20054;-90
2022/09/27 08:36:13;;;;;;;1.95;0.70;;;;;;;9.50;100.00;98992.09;5067588;28;20084;-90
2022/09/27 08:38:49;;;;;;;4.72;1.15;;;;;;;9.24;100.00;98933.63;5068138;28;20098;-90
2022/09/27 08:41:38;;;;;;;2.38;0.73;;;;;;;9.75;100.00;99001.06;5065945;28;20036;-88
2022/09/27 08:44:13;;;;;;;2.05;0.82;;;;;;;9.82;100.00;99004.97;5057169;28;20054;-88
2022/09/27 08:47:02;;;;;;;4.25;1.13;;;;;;;9.85;100.00;98991.72;5034131;28;20466;-87
2022/09/27 08:49:42;;;;;;;2.03;0.80;;;;;;;9.29;100.00;98922.91;5044913;28;20119;-86
2022/09/27 08:52:20;;;;;;;5.68;1.00;;;;;;;9.53;100.00;98982.44;5036839;28;20045;-87
2022/09/27 08:54:48;;;;;;;2.72;1.00;;;;;;;9.35;100.00;98942.56;5037596;28;20049;-87
2022/09/27 08:57:16;;;;;;;2.97;1.00;;;;;;;9.56;100.00;98919.50;5034657;28;20042;-86
2022/09/27 08:59:53;;;;;;;2.50;0.90;;;;;;;10.11;100.00;98947.41;5025863;28;20491;-85
2022/09/27 09:02:26;;;;;;;2.80;0.98;;;;;;;10.32;100.00;98958.25;5022663;28;20053;-86
2022/09/27 09:04:57;;;;;;;1.65;0.80;;;;;;;10.25;100.00;98923.81;5032601;28;20091;-87
2022/09/27 09:07:57;;;;;;;3.17;0.90;;;;;;;10.46;100.00;98965.22;5054555;28;20053;-87
2022/09/27 09:13:56;;;;;;;3.03;0.90;;;;;;;10.58;100.00;98955.72;5028635;28;20120;-87
2022/09/27 09:16:42;;;;;;;3.40;1.00;;;;;;;11.03;100.00;98958.84;5032675;28;20054;-87
2022/09/27 09:19:40;;;;;;;3.72;1.15;;;;;;;11.58;100.00;98947.16;5053962;28;20045;-87
2022/09/27 09:22:27;;;;;;;3.85;1.10;;;;;;;11.45;100.00;98950.75;5026871;28;20057;-87
2022/09/27 09:24:54;;;;;;;4.63;1.30;;;;;;;11.98;100.00;98945.31;5020949;28;20045;-86
2022/09/27 09:27:30;;;;;;;6.00;1.05;;;;;;;11.78;100.00;98952.78;5018747;28;20116;-87
2022/09/27 09:30:20;;;;;;;4.05;0.85;;;;;;;12.00;100.00;98952.09;5050044;28;20049;-87
2022/09/27 09:33:05;;;;;;;3.47;1.10;;;;;;;11.18;100.00;98928.13;5034613;28;20048;-87
2022/09/27 09:35:40;;;;;;;3.92;1.05;;;;;;;10.78;100.00;98923.84;5055527;28;20058;-87
2022/09/27 09:38:36;;;;;;;3.85;1.17;;;;;;;10.91;100.00;98915.16;5037232;28;20068;-88
2022/09/27 09:41:16;;;;;;;3.05;1.00;;;;;;;11.55;100.00;98959.66;5021045;28;20053;-87
2022/09/27 09:43:51;;;;;;;2.55;0.90;;;;;;;11.56;100.00;98962.16;5038637;28;20045;-87
2022/09/27 09:46:24;;;;;;;3.63;1.05;;;;;;;11.66;100.00;98964.97;5031064;28;20050;-86
2022/09/27 09:48:55;;;;;;;2.65;0.95;;;;;;;11.80;100.00;98969.25;5049828;28;20076;-87
2022/09/27 09:51:28;;;;;;;4.60;1.08;;;;;;;11.68;100.00;98977.97;5029218;28;20045;-88
2022/09/27 09:54:02;;;;;;;5.47;1.15;;;;;;;11.22;100.00;98929.59;5055090;28;20053;-87
2022/09/27 09:56:33;;;;;;;4.47;1.23;;;;;;;10.94;100.00;98931.50;5047086;28;20057;-87
2022/09/27 09:59:08;;;;;;;6.18;1.20;;;;;;;11.43;100.00;98976.22;5052347;28;20132;-87
2022/09/27 10:01:40;;;;;;;4.15;1.40;;;;;;;11.48;100.00;98977.59;5030105;28;20046;-86
2022/09/27 10:04:22;;;;;;;3.78;1.00;;;;;;;11.24;100.00;98959.13;5051065;28;20061;-87
2022/09/27 10:06:50;;;;;;;3.83;1.13;;;;;;;11.23;100.00;98939.16;5048042;28;20484;-87
2022/09/27 10:09:23;;;;;;;6.47;1.20;;;;;;;11.47;100.00;98972.44;5034925;28;20091;-87
2022/09/27 10:11:50;;;;;;;7.53;1.33;;;;;;;10.95;100.00;98909.59;5031755;28;20060;-87
2022/09/27 10:14:19;;;;;;;4.32;1.17;;;;;;;11.45;100.00;98948.13;5055902;28;20496;-87
2022/09/27 10:16:56;;;;;;;2.67;1.00;;;;;;;11.50;100.00;98970.44;5040188;28;20558;-86
2022/09/27 10:19:29;;;;;;;3.10;1.10;;;;;;;11.10;100.00;98951.38;5039949;28;20418;-86
2022/09/27 10:22:19;;;;;;;;;;;;;;;11.34;100.00;98975.91;5038285;28;20045;-87
2022/09/27 10:24:55;;;;;;;3.20;0.90;;;;;;;12.20;100.00;98969.06;5022910;28;19928;-86
2022/09/27 10:27:26;;;;;;;4.10;1.02;;;;;;;12.37;100.00;98970.44;5036297;28;20046;-87
2022/09/27 10:29:59;;;;;;;2.38;0.90;;;;;;;12.26;100.00;98949.41;5036145;28;20068;-87
2022/09/27 10:32:35;;;;;;;3.35;1.00;;;;;;;12.04;100.00;98957.97;5034571;28;20060;-87
2022/09/27 10:35:39;;;;;;;2.03;0.85;;;;;;;11.72;100.00;98922.59;5037388;28;20426;-87
2022/09/27 10:38:21;;;;;;;3.47;1.25;;;;;;;12.41;100.00;98950.91;5032671;28;20050;-87
2022/09/27 10:40:51;;;;;;;3.97;0.90;;;;;;;12.10;100.00;98924.28;5042712;28;20483;-88
2022/09/27 10:43:33;;;;;;;4.00;1.20;;;;;;;12.40;100.00;98958.88;5058369;28;20140;-88
2022/09/27 10:46:12;;;;;;;1.85;0.77;;;;;;;12.36;100.00;98950.41;5044645;28;20050;-87
2022/09/27 10:48:41;;;;;;;4.85;1.30;;;;;;;11.88;100.00;98937.22;5052586;28;20054;-88
2022/09/27 10:51:27;;;;;;;3.42;0.75;;;;;;;12.21;100.00;98939.22;5040907;28;20053;-88
2022/09/27 10:54:26;;;;;;;2.45;1.00;;;;;;;12.37;100.00;98951.22;5035846;28;20056;-95
2022/09/27 10:57:15;;;;;;;1.98;0.80;;;;;;;12.50;100.00;98938.88;5049793;28;20053;-95
2022/09/27 10:59:59;;;;;;;3.25;0.80;;;;;;;12.91;100.00;98932.31;5049562;28;20057;-93
2022/09/27 11:02:41;;;;;;;2.03;0.70;;;;;;;12.73;100.00;98919.63;5049250;28;20053;-91
2022/09/27 11:05:14;;;;;;;1.55;0.80;;;;;;;13.07;100.00;98935.44;5051419;28;20050;-95
2022/09/27 11:08:27;;;;;;;2.85;1.25;;;;;;;12.63;100.00;98934.38;5021429;28;20041;-96
2022/09/27 11:11:28;;;;;;;2.70;0.80;;;;;;;12.83;100.00;98938.13;5025048;28;20054;-92
2022/09/27 11:14:21;;;;;;;2.67;0.90;;;;;;;12.57;100.00;98926.13;5035998;28;20066;-95
2022/09/27 11:17:16;;;;;;;2.40;0.82;;;;;;;12.91;100.00;98903.44;5050275;28;20105;-95
2022/09/27 11:20:10;;;;;;;4.60;1.10;;;;;;;13.18;100.00;98953.00;5036943;28;20057;-95
2022/09/27 11:23:16;;;;;;;4.82;1.05;;;;;;;13.02;100.00;98929.69;5038065;28;20085;-96
2022/09/27 11:26:25;;;;;;;6.03;1.05;;;;;;;12.61;100.00;98948.59;5032552;28;20057;-95
2022/09/27 11:29:27;;;;;;;6.63;1.00;;;;;;;12.30;100.00;98937.72;5035456;28;20045;-95
2022/09/27 11:32:15;;;;;;;1.88;0.70;;;;;;;12.47;100.00;98908.44;5049744;28;20046;-95
2022/09/27 11:35:23;;;;;;;4.82;1.02;;;;;;;13.01;100.00;98948.19;5055911;28;20056;-94
2022/09/27 11:38:33;;;;;;;2.25;0.77;;;;;;;12.57;100.00;98955.88;5056436;28;20072;-94
2022/09/27 11:41:58;;;;;;;3.88;1.02;;;;;;;12.73;100.00;98935.38;5035551;28;20093;-94
2022/09/27 11:45:01;;;;;;;3.35;0.90;;;;;;;12.81;100.00;98950.53;5052426;28;20041;-95
2022/09/27 11:48:21;;;;;;;2.70;1.10;;;;;;;12.50;100.00;98947.59;5039997;28;20037;-95
2022/09/27 11:51:05;;;;;;;3.80;1.02;;;;;;;13.10;100.00;98963.25;5038532;28;20283;-92
2022/09/27 11:54:06;;;;;;;2.65;0.85;;;;;;;12.62;100.00;98950.25;5039483;28;20041;-91
2022/09/27 11:57:25;;;;;;;4.57;0.80;;;;;;;12.94;100.00;98944.38;5016491;28;20053;-94
2022/09/27 12:00:20;;;;;;;4.53;0.80;;;;;;;13.22;100.00;98974.63;4976791;28;20459;-94
2022/09/27 12:03:08;;;;;;;3.05;0.90;;;;;;;13.75;100.00;98972.28;5013969;28;20104;-95
2022/09/27 12:05:47;;;;;;;1.95;0.80;;;;;;;13.25;100.00;98943.69;5038678;28;20075;-94
2022/09/27 12:08:54;;;;;;;4.05;1.00;;;;;;;13.40;100.00;98975.03;5035761;28;20057;-95
2022/09/27 12:11:29;;;;;;;2.40;0.90;;;;;;;13.50;100.00;98967.28;5035633;28;20046;-94
2022/09/27 12:14:02;;;;;;;4.30;1.10;;;;;;;13.19;100.00;98967.84;5036025;28;20103;-94
2022/09/27 12:16:31;;;;;;;5.93;1.10;;;;;;;13.01;100.00;98958.72;5035595;28;20088;-95